sensor_id;sensor_type;location;lat;lon;timestamp;P1;durP1;ratioP1;P2;durP2;ratioP2
49590;SDS011;35496;-21.974;-46.800;2022-12-18T00:01:23;7.85;;;3.33;;
49590;SDS011;35496;-21.974;-46.800;2022-12-18T00:03:49;5.45;;;3.13;;
49590;SDS011;35496;-21.974;-46.800;2022-12-18T00:06:16;4.20;;;2.60;;
49590;SDS011;35496;-21.974;-46.800;2022-12-18T00:08:42;4.78;;;2.75;;
49590;SDS011;35496;-21.974;-46.800;2022-12-18T00:11:12;6.15;;;3.72;;
49590;SDS011;35496;-21.974;-46.800;2022-12-18T00:13:39;3.45;;;3.17;;
49590;SDS011;35496;-21.974;-46.800;2022-12-18T00:16:13;3.83;;;3.08;;
49590;SDS011;35496;-21.974;-46.800;2022-12-18T00:18:39;3.25;;;2.42;;
49590;SDS011;35496;-21.974;-46.800;2022-12-18T00:21:06;3.90;;;2.83;;
49590;SDS011;35496;-21.974;-46.800;2022-12-18T00:23:33;3.33;;;2.70;;
49590;SDS011;35496;-21.974;-46.800;2022-12-18T00:26:06;4.50;;;3.47;;
49590;SDS011;35496;-21.974;-46.800;2022-12-18T00:28:33;6.47;;;3.13;;
49590;SDS011;35496;-21.974;-46.800;2022-12-18T00:31:00;5.40;;;2.67;;
49590;SDS011;35496;-21.974;-46.800;2022-12-18T00:33:27;9.18;;;3.22;;
49590;SDS011;35496;-21.974;-46.800;2022-12-18T00:35:53;6.13;;;3.30;;
49590;SDS011;35496;-21.974;-46.800;2022-12-18T00:38:19;7.68;;;3.60;;
49590;SDS011;35496;-21.974;-46.800;2022-12-18T00:40:45;5.95;;;4.35;;
49590;SDS011;35496;-21.974;-46.800;2022-12-18T00:43:11;6.93;;;5.00;;
49590;SDS011;35496;-21.974;-46.800;2022-12-18T00:45:37;12.90;;;5.40;;
49590;SDS011;35496;-21.974;-46.800;2022-12-18T00:48:03;9.82;;;5.05;;
49590;SDS011;35496;-21.974;-46.800;2022-12-18T00:50:29;8.95;;;4.53;;
49590;SDS011;35496;-21.974;-46.800;2022-12-18T00:52:55;7.50;;;4.78;;
49590;SDS011;35496;-21.974;-46.800;2022-12-18T00:55:22;10.55;;;6.03;;
49590;SDS011;35496;-21.974;-46.800;2022-12-18T00:57:48;11.60;;;5.22;;
49590;SDS011;35496;-21.974;-46.800;2022-12-18T01:00:14;9.18;;;5.55;;
49590;SDS011;35496;-21.974;-46.800;2022-12-18T01:02:41;9.00;;;4.43;;
49590;SDS011;35496;-21.974;-46.800;2022-12-18T01:05:07;6.55;;;5.40;;
49590;SDS011;35496;-21.974;-46.800;2022-12-18T01:07:34;8.70;;;4.25;;
49590;SDS011;35496;-21.974;-46.800;2022-12-18T01:10:00;5.57;;;3.78;;
49590;SDS011;35496;-21.974;-46.800;2022-12-18T01:12:26;10.05;;;4.30;;
49590;SDS011;35496;-21.974;-46.800;2022-12-18T01:14:52;6.93;;;4.28;;
49590;SDS011;35496;-21.974;-46.800;2022-12-18T01:17:18;5.38;;;4.38;;
49590;SDS011;35496;-21.974;-46.800;2022-12-18T01:19:44;11.43;;;6.13;;
49590;SDS011;35496;-21.974;-46.800;2022-12-18T01:22:11;8.30;;;5.35;;
49590;SDS011;35496;-21.974;-46.800;2022-12-18T01:24:37;5.25;;;4.70;;
49590;SDS011;35496;-21.974;-46.800;2022-12-18T01:27:03;4.45;;;3.90;;
49590;SDS011;35496;-21.974;-46.800;2022-12-18T01:29:29;5.75;;;3.60;;
49590;SDS011;35496;-21.974;-46.800;2022-12-18T01:31:55;5.13;;;3.47;;
49590;SDS011;35496;-21.974;-46.800;2022-12-18T01:34:22;11.25;;;3.13;;
49590;SDS011;35496;-21.974;-46.800;2022-12-18T01:36:48;7.65;;;3.45;;
49590;SDS011;35496;-21.974;-46.800;2022-12-18T01:39:14;4.45;;;2.50;;
49590;SDS011;35496;-21.974;-46.800;2022-12-18T01:41:41;5.57;;;2.95;;
49590;SDS011;35496;-21.974;-46.800;2022-12-18T01:47:09;3.35;;;3.05;;
49590;SDS011;35496;-21.974;-46.800;2022-12-18T01:49:39;2.63;;;2.40;;
49590;SDS011;35496;-21.974;-46.800;2022-12-18T01:52:05;7.20;;;3.58;;
49590;SDS011;35496;-21.974;-46.800;2022-12-18T01:54:31;4.00;;;2.75;;
49590;SDS011;35496;-21.974;-46.800;2022-12-18T01:56:57;5.55;;;2.80;;
49590;SDS011;35496;-21.974;-46.800;2022-12-18T01:59:23;5.57;;;3.35;;
49590;SDS011;35496;-21.974;-46.800;2022-12-18T02:01:50;13.68;;;4.47;;
49590;SDS011;35496;-21.974;-46.800;2022-12-18T02:04:26;5.60;;;2.72;;
49590;SDS011;35496;-21.974;-46.800;2022-12-18T02:09:46;4.72;;;3.03;;
49590;SDS011;35496;-21.974;-46.800;2022-12-18T02:12:21;4.85;;;2.67;;
49590;SDS011;35496;-21.974;-46.800;2022-12-18T02:15:02;4.70;;;3.15;;
49590;SDS011;35496;-21.974;-46.800;2022-12-18T02:17:35;4.38;;;3.42;;
49590;SDS011;35496;-21.974;-46.800;2022-12-18T02:27:39;3.30;;;2.42;;
49590;SDS011;35496;-21.974;-46.800;2022-12-18T02:30:07;6.75;;;2.70;;
49590;SDS011;35496;-21.974;-46.800;2022-12-18T02:32:34;5.47;;;1.80;;
49590;SDS011;35496;-21.974;-46.800;2022-12-18T02:35:03;3.35;;;1.98;;
49590;SDS011;35496;-21.974;-46.800;2022-12-18T02:37:30;6.63;;;2.28;;
49590;SDS011;35496;-21.974;-46.800;2022-12-18T02:39:56;2.55;;;2.35;;
49590;SDS011;35496;-21.974;-46.800;2022-12-18T02:42:24;6.13;;;2.33;;
49590;SDS011;35496;-21.974;-46.800;2022-12-18T02:44:51;2.97;;;1.77;;
49590;SDS011;35496;-21.974;-46.800;2022-12-18T02:47:17;6.85;;;2.25;;
49590;SDS011;35496;-21.974;-46.800;2022-12-18T02:54:57;3.42;;;1.77;;
49590;SDS011;35496;-21.974;-46.800;2022-12-18T03:00:06;3.10;;;1.60;;
49590;SDS011;35496;-21.974;-46.800;2022-12-18T03:02:36;4.97;;;1.55;;
49590;SDS011;35496;-21.974;-46.800;2022-12-18T03:05:09;2.78;;;1.80;;
49590;SDS011;35496;-21.974;-46.800;2022-12-18T03:07:39;1.77;;;1.45;;
49590;SDS011;35496;-21.974;-46.800;2022-12-18T03:10:07;3.25;;;1.70;;
49590;SDS011;35496;-21.974;-46.800;2022-12-18T03:12:35;4.70;;;1.88;;
49590;SDS011;35496;-21.974;-46.800;2022-12-18T03:17:30;5.32;;;2.90;;
49590;SDS011;35496;-21.974;-46.800;2022-12-18T03:19:57;2.33;;;2.13;;
49590;SDS011;35496;-21.974;-46.800;2022-12-18T03:22:24;3.42;;;2.47;;
49590;SDS011;35496;-21.974;-46.800;2022-12-18T03:24:53;2.78;;;1.98;;
49590;SDS011;35496;-21.974;-46.800;2022-12-18T03:27:20;3.58;;;1.50;;
49590;SDS011;35496;-21.974;-46.800;2022-12-18T03:29:56;3.33;;;1.70;;
49590;SDS011;35496;-21.974;-46.800;2022-12-18T03:32:55;4.82;;;2.35;;
49590;SDS011;35496;-21.974;-46.800;2022-12-18T03:35:21;2.05;;;1.85;;
49590;SDS011;35496;-21.974;-46.800;2022-12-18T03:37:48;2.33;;;1.95;;
49590;SDS011;35496;-21.974;-46.800;2022-12-18T03:40:14;2.22;;;2.03;;
49590;SDS011;35496;-21.974;-46.800;2022-12-18T03:42:55;4.97;;;1.75;;
49590;SDS011;35496;-21.974;-46.800;2022-12-18T03:45:31;2.85;;;1.98;;
49590;SDS011;35496;-21.974;-46.800;2022-12-18T03:55:41;1.70;;;1.50;;
49590;SDS011;35496;-21.974;-46.800;2022-12-18T03:58:07;9.77;;;2.05;;
49590;SDS011;35496;-21.974;-46.800;2022-12-18T04:00:35;3.40;;;2.53;;
49590;SDS011;35496;-21.974;-46.800;2022-12-18T04:03:02;2.67;;;1.60;;
49590;SDS011;35496;-21.974;-46.800;2022-12-18T04:05:30;3.42;;;2.35;;
49590;SDS011;35496;-21.974;-46.800;2022-12-18T04:07:57;3.38;;;2.40;;
49590;SDS011;35496;-21.974;-46.800;2022-12-18T04:10:24;1.40;;;1.30;;
49590;SDS011;35496;-21.974;-46.800;2022-12-18T04:12:50;1.90;;;1.65;;
49590;SDS011;35496;-21.974;-46.800;2022-12-18T04:15:16;3.38;;;2.25;;
49590;SDS011;35496;-21.974;-46.800;2022-12-18T04:17:51;4.78;;;2.38;;
49590;SDS011;35496;-21.974;-46.800;2022-12-18T04:20:17;2.13;;;1.92;;
49590;SDS011;35496;-21.974;-46.800;2022-12-18T04:22:43;3.70;;;2.33;;
49590;SDS011;35496;-21.974;-46.800;2022-12-18T04:25:09;8.73;;;2.70;;
49590;SDS011;35496;-21.974;-46.800;2022-12-18T04:27:35;3.58;;;2.20;;
49590;SDS011;35496;-21.974;-46.800;2022-12-18T04:30:02;2.38;;;2.15;;
49590;SDS011;35496;-21.974;-46.800;2022-12-18T04:32:28;4.55;;;2.22;;
49590;SDS011;35496;-21.974;-46.800;2022-12-18T04:34:54;14.82;;;2.80;;
49590;SDS011;35496;-21.974;-46.800;2022-12-18T04:37:20;7.25;;;1.90;;
49590;SDS011;35496;-21.974;-46.800;2022-12-18T04:39:46;6.55;;;1.83;;
49590;SDS011;35496;-21.974;-46.800;2022-12-18T04:42:12;2.72;;;2.42;;
49590;SDS011;35496;-21.974;-46.800;2022-12-18T04:44:38;4.22;;;2.97;;
49590;SDS011;35496;-21.974;-46.800;2022-12-18T04:47:04;3.88;;;2.92;;
49590;SDS011;35496;-21.974;-46.800;2022-12-18T04:49:30;2.67;;;2.13;;
49590;SDS011;35496;-21.974;-46.800;2022-12-18T04:51:56;5.43;;;2.00;;
49590;SDS011;35496;-21.974;-46.800;2022-12-18T04:54:22;3.22;;;1.60;;
49590;SDS011;35496;-21.974;-46.800;2022-12-18T04:56:48;1.73;;;1.55;;
49590;SDS011;35496;-21.974;-46.800;2022-12-18T04:59:14;6.03;;;1.85;;
49590;SDS011;35496;-21.974;-46.800;2022-12-18T05:01:41;3.55;;;1.70;;
49590;SDS011;35496;-21.974;-46.800;2022-12-18T05:04:07;3.53;;;2.13;;
49590;SDS011;35496;-21.974;-46.800;2022-12-18T05:06:33;2.92;;;1.52;;
49590;SDS011;35496;-21.974;-46.800;2022-12-18T05:08:59;7.00;;;1.70;;
49590;SDS011;35496;-21.974;-46.800;2022-12-18T05:11:25;5.90;;;2.05;;
49590;SDS011;35496;-21.974;-46.800;2022-12-18T05:13:51;6.55;;;3.13;;
49590;SDS011;35496;-21.974;-46.800;2022-12-18T05:16:17;5.68;;;3.15;;
49590;SDS011;35496;-21.974;-46.800;2022-12-18T05:18:43;1.80;;;1.40;;
49590;SDS011;35496;-21.974;-46.800;2022-12-18T05:21:10;4.72;;;1.70;;
49590;SDS011;35496;-21.974;-46.800;2022-12-18T05:23:36;3.50;;;1.73;;
49590;SDS011;35496;-21.974;-46.800;2022-12-18T05:26:03;4.88;;;2.03;;
49590;SDS011;35496;-21.974;-46.800;2022-12-18T05:28:30;3.33;;;1.92;;
49590;SDS011;35496;-21.974;-46.800;2022-12-18T05:31:00;4.13;;;1.65;;
49590;SDS011;35496;-21.974;-46.800;2022-12-18T05:33:27;3.70;;;1.77;;
49590;SDS011;35496;-21.974;-46.800;2022-12-18T05:35:55;2.58;;;1.90;;
49590;SDS011;35496;-21.974;-46.800;2022-12-18T05:38:22;4.50;;;2.65;;
49590;SDS011;35496;-21.974;-46.800;2022-12-18T05:40:49;2.70;;;2.25;;
49590;SDS011;35496;-21.974;-46.800;2022-12-18T05:43:15;4.60;;;1.33;;
49590;SDS011;35496;-21.974;-46.800;2022-12-18T05:45:41;2.65;;;2.03;;
49590;SDS011;35496;-21.974;-46.800;2022-12-18T05:48:08;2.25;;;1.67;;
49590;SDS011;35496;-21.974;-46.800;2022-12-18T05:50:39;3.53;;;1.67;;
49590;SDS011;35496;-21.974;-46.800;2022-12-18T05:53:05;2.28;;;2.08;;
49590;SDS011;35496;-21.974;-46.800;2022-12-18T05:55:35;2.13;;;1.58;;
49590;SDS011;35496;-21.974;-46.800;2022-12-18T05:58:02;2.75;;;1.85;;
49590;SDS011;35496;-21.974;-46.800;2022-12-18T06:00:28;3.30;;;1.75;;
49590;SDS011;35496;-21.974;-46.800;2022-12-18T06:02:54;4.72;;;3.83;;
49590;SDS011;35496;-21.974;-46.800;2022-12-18T06:05:21;3.10;;;2.22;;
49590;SDS011;35496;-21.974;-46.800;2022-12-18T06:07:47;6.93;;;5.93;;
49590;SDS011;35496;-21.974;-46.800;2022-12-18T06:10:13;1.70;;;1.63;;
49590;SDS011;35496;-21.974;-46.800;2022-12-18T06:12:39;4.20;;;1.98;;
49590;SDS011;35496;-21.974;-46.800;2022-12-18T06:15:05;1.40;;;1.30;;
49590;SDS011;35496;-21.974;-46.800;2022-12-18T06:17:32;2.65;;;2.00;;
49590;SDS011;35496;-21.974;-46.800;2022-12-18T06:19:58;1.25;;;1.10;;
49590;SDS011;35496;-21.974;-46.800;2022-12-18T06:22:24;1.90;;;1.80;;
49590;SDS011;35496;-21.974;-46.800;2022-12-18T06:24:51;2.97;;;1.60;;
49590;SDS011;35496;-21.974;-46.800;2022-12-18T06:27:17;2.88;;;2.28;;
49590;SDS011;35496;-21.974;-46.800;2022-12-18T06:29:43;2.95;;;1.45;;
49590;SDS011;35496;-21.974;-46.800;2022-12-18T06:32:09;3.67;;;1.95;;
49590;SDS011;35496;-21.974;-46.800;2022-12-18T06:34:38;3.33;;;1.10;;
49590;SDS011;35496;-21.974;-46.800;2022-12-18T06:37:05;3.45;;;1.75;;
49590;SDS011;35496;-21.974;-46.800;2022-12-18T06:39:31;1.27;;;1.17;;
49590;SDS011;35496;-21.974;-46.800;2022-12-18T06:41:57;3.85;;;1.48;;
49590;SDS011;35496;-21.974;-46.800;2022-12-18T06:44:23;2.08;;;1.30;;
49590;SDS011;35496;-21.974;-46.800;2022-12-18T06:46:49;2.05;;;1.88;;
49590;SDS011;35496;-21.974;-46.800;2022-12-18T06:49:15;2.38;;;1.95;;
49590;SDS011;35496;-21.974;-46.800;2022-12-18T06:51:41;2.58;;;1.90;;
49590;SDS011;35496;-21.974;-46.800;2022-12-18T06:54:07;3.40;;;1.52;;
49590;SDS011;35496;-21.974;-46.800;2022-12-18T06:56:34;2.47;;;1.52;;
49590;SDS011;35496;-21.974;-46.800;2022-12-18T06:59:00;4.22;;;1.75;;
49590;SDS011;35496;-21.974;-46.800;2022-12-18T07:01:26;1.27;;;1.23;;
49590;SDS011;35496;-21.974;-46.800;2022-12-18T07:03:55;2.03;;;1.25;;
49590;SDS011;35496;-21.974;-46.800;2022-12-18T07:06:23;2.03;;;1.10;;
49590;SDS011;35496;-21.974;-46.800;2022-12-18T07:08:49;1.58;;;1.27;;
49590;SDS011;35496;-21.974;-46.800;2022-12-18T07:11:16;1.90;;;1.40;;
49590;SDS011;35496;-21.974;-46.800;2022-12-18T07:13:42;2.17;;;0.93;;
49590;SDS011;35496;-21.974;-46.800;2022-12-18T07:16:10;1.63;;;1.52;;
49590;SDS011;35496;-21.974;-46.800;2022-12-18T07:18:37;1.65;;;1.40;;
49590;SDS011;35496;-21.974;-46.800;2022-12-18T07:21:03;2.60;;;1.50;;
49590;SDS011;35496;-21.974;-46.800;2022-12-18T07:23:31;1.45;;;1.35;;
49590;SDS011;35496;-21.974;-46.800;2022-12-18T07:26:00;1.23;;;1.08;;
49590;SDS011;35496;-21.974;-46.800;2022-12-18T07:28:26;6.60;;;1.48;;
49590;SDS011;35496;-21.974;-46.800;2022-12-18T07:30:52;5.25;;;1.40;;
49590;SDS011;35496;-21.974;-46.800;2022-12-18T07:33:19;0.82;;;0.82;;
49590;SDS011;35496;-21.974;-46.800;2022-12-18T07:35:45;1.08;;;0.80;;
49590;SDS011;35496;-21.974;-46.800;2022-12-18T07:38:11;1.48;;;1.17;;
49590;SDS011;35496;-21.974;-46.800;2022-12-18T07:40:37;2.60;;;1.90;;
49590;SDS011;35496;-21.974;-46.800;2022-12-18T07:43:03;0.88;;;0.88;;
49590;SDS011;35496;-21.974;-46.800;2022-12-18T07:45:31;1.92;;;1.50;;
49590;SDS011;35496;-21.974;-46.800;2022-12-18T07:47:58;6.05;;;2.20;;
49590;SDS011;35496;-21.974;-46.800;2022-12-18T07:50:24;1.42;;;1.25;;
49590;SDS011;35496;-21.974;-46.800;2022-12-18T07:52:50;4.55;;;2.55;;
49590;SDS011;35496;-21.974;-46.800;2022-12-18T07:55:16;2.58;;;1.70;;
49590;SDS011;35496;-21.974;-46.800;2022-12-18T07:57:42;2.90;;;2.13;;
49590;SDS011;35496;-21.974;-46.800;2022-12-18T08:00:08;2.05;;;1.95;;
49590;SDS011;35496;-21.974;-46.800;2022-12-18T08:02:34;3.17;;;2.75;;
49590;SDS011;35496;-21.974;-46.800;2022-12-18T08:05:00;3.83;;;2.33;;
49590;SDS011;35496;-21.974;-46.800;2022-12-18T08:07:26;5.30;;;2.28;;
49590;SDS011;35496;-21.974;-46.800;2022-12-18T08:09:53;3.03;;;2.83;;
49590;SDS011;35496;-21.974;-46.800;2022-12-18T08:12:19;4.60;;;2.90;;
49590;SDS011;35496;-21.974;-46.800;2022-12-18T08:14:45;6.05;;;3.00;;
49590;SDS011;35496;-21.974;-46.800;2022-12-18T08:17:11;2.67;;;2.30;;
49590;SDS011;35496;-21.974;-46.800;2022-12-18T08:19:37;5.20;;;2.40;;
49590;SDS011;35496;-21.974;-46.800;2022-12-18T08:22:03;4.28;;;2.90;;
49590;SDS011;35496;-21.974;-46.800;2022-12-18T08:24:29;4.30;;;3.03;;
49590;SDS011;35496;-21.974;-46.800;2022-12-18T08:26:56;7.53;;;2.95;;
49590;SDS011;35496;-21.974;-46.800;2022-12-18T08:29:22;4.90;;;3.13;;
49590;SDS011;35496;-21.974;-46.800;2022-12-18T08:31:49;2.75;;;2.55;;
49590;SDS011;35496;-21.974;-46.800;2022-12-18T08:34:15;4.07;;;2.33;;
49590;SDS011;35496;-21.974;-46.800;2022-12-18T08:36:41;1.50;;;1.27;;
49590;SDS011;35496;-21.974;-46.800;2022-12-18T08:39:07;2.00;;;1.90;;
49590;SDS011;35496;-21.974;-46.800;2022-12-18T08:41:33;2.35;;;1.38;;
49590;SDS011;35496;-21.974;-46.800;2022-12-18T08:43:59;2.17;;;1.23;;
49590;SDS011;35496;-21.974;-46.800;2022-12-18T08:46:44;1.05;;;0.95;;
49590;SDS011;35496;-21.974;-46.800;2022-12-18T08:49:10;0.90;;;0.90;;
49590;SDS011;35496;-21.974;-46.800;2022-12-18T08:51:37;2.22;;;1.08;;
49590;SDS011;35496;-21.974;-46.800;2022-12-18T08:54:04;2.22;;;1.17;;
49590;SDS011;35496;-21.974;-46.800;2022-12-18T08:56:30;2.70;;;1.17;;
49590;SDS011;35496;-21.974;-46.800;2022-12-18T08:58:56;0.68;;;0.60;;
49590;SDS011;35496;-21.974;-46.800;2022-12-18T09:01:22;1.45;;;1.35;;
49590;SDS011;35496;-21.974;-46.800;2022-12-18T09:03:49;0.93;;;0.80;;
49590;SDS011;35496;-21.974;-46.800;2022-12-18T09:06:19;0.50;;;0.50;;
49590;SDS011;35496;-21.974;-46.800;2022-12-18T09:08:46;1.17;;;1.08;;
49590;SDS011;35496;-21.974;-46.800;2022-12-18T09:11:13;2.53;;;0.82;;
49590;SDS011;35496;-21.974;-46.800;2022-12-18T09:13:40;1.33;;;0.75;;
49590;SDS011;35496;-21.974;-46.800;2022-12-18T09:16:06;1.40;;;0.50;;
49590;SDS011;35496;-21.974;-46.800;2022-12-18T09:18:32;1.13;;;0.70;;
49590;SDS011;35496;-21.974;-46.800;2022-12-18T09:20:58;1.42;;;0.47;;
49590;SDS011;35496;-21.974;-46.800;2022-12-18T09:23:24;0.85;;;0.73;;
49590;SDS011;35496;-21.974;-46.800;2022-12-18T09:25:50;1.08;;;0.80;;
49590;SDS011;35496;-21.974;-46.800;2022-12-18T09:28:17;1.63;;;1.02;;
49590;SDS011;35496;-21.974;-46.800;2022-12-18T09:30:45;2.78;;;1.50;;
49590;SDS011;35496;-21.974;-46.800;2022-12-18T09:33:11;2.08;;;1.05;;
49590;SDS011;35496;-21.974;-46.800;2022-12-18T09:35:37;0.55;;;0.55;;
49590;SDS011;35496;-21.974;-46.800;2022-12-18T09:38:04;0.65;;;0.65;;
49590;SDS011;35496;-21.974;-46.800;2022-12-18T09:40:34;2.50;;;1.38;;
49590;SDS011;35496;-21.974;-46.800;2022-12-18T09:43:02;5.57;;;1.98;;
49590;SDS011;35496;-21.974;-46.800;2022-12-18T09:45:35;3.03;;;1.35;;
49590;SDS011;35496;-21.974;-46.800;2022-12-18T09:48:05;8.23;;;2.33;;
49590;SDS011;35496;-21.974;-46.800;2022-12-18T09:50:34;1.40;;;1.00;;
49590;SDS011;35496;-21.974;-46.800;2022-12-18T09:57:47;0.77;;;0.77;;
49590;SDS011;35496;-21.974;-46.800;2022-12-18T10:00:20;0.80;;;0.80;;
49590;SDS011;35496;-21.974;-46.800;2022-12-18T10:02:48;1.05;;;0.95;;
49590;SDS011;35496;-21.974;-46.800;2022-12-18T10:05:29;4.25;;;1.23;;
49590;SDS011;35496;-21.974;-46.800;2022-12-18T10:11:00;1.25;;;0.93;;
49590;SDS011;35496;-21.974;-46.800;2022-12-18T10:13:53;0.75;;;0.65;;
49590;SDS011;35496;-21.974;-46.800;2022-12-18T10:16:35;0.60;;;0.60;;
49590;SDS011;35496;-21.974;-46.800;2022-12-18T10:19:29;1.83;;;0.77;;
49590;SDS011;35496;-21.974;-46.800;2022-12-18T10:24:42;0.80;;;0.77;;
49590;SDS011;35496;-21.974;-46.800;2022-12-18T10:27:32;0.85;;;0.70;;
49590;SDS011;35496;-21.974;-46.800;2022-12-18T10:29:59;1.55;;;1.42;;
49590;SDS011;35496;-21.974;-46.800;2022-12-18T10:32:33;1.48;;;1.38;;
49590;SDS011;35496;-21.974;-46.800;2022-12-18T10:35:01;1.98;;;1.65;;
49590;SDS011;35496;-21.974;-46.800;2022-12-18T10:37:28;3.92;;;1.42;;
49590;SDS011;35496;-21.974;-46.800;2022-12-18T10:40:12;2.20;;;2.05;;
49590;SDS011;35496;-21.974;-46.800;2022-12-18T10:42:40;3.63;;;1.98;;
49590;SDS011;35496;-21.974;-46.800;2022-12-18T10:45:13;1.83;;;1.73;;
49590;SDS011;35496;-21.974;-46.800;2022-12-18T10:47:43;3.63;;;1.95;;
49590;SDS011;35496;-21.974;-46.800;2022-12-18T10:53:34;3.33;;;1.52;;
49590;SDS011;35496;-21.974;-46.800;2022-12-18T10:56:03;6.82;;;2.38;;
49590;SDS011;35496;-21.974;-46.800;2022-12-18T10:58:33;4.40;;;2.83;;
49590;SDS011;35496;-21.974;-46.800;2022-12-18T11:01:11;2.83;;;1.85;;
49590;SDS011;35496;-21.974;-46.800;2022-12-18T11:03:42;6.32;;;2.95;;
49590;SDS011;35496;-21.974;-46.800;2022-12-18T11:06:11;1.73;;;1.42;;
49590;SDS011;35496;-21.974;-46.800;2022-12-18T11:08:38;2.80;;;1.13;;
49590;SDS011;35496;-21.974;-46.800;2022-12-18T11:11:28;1.52;;;1.30;;
49590;SDS011;35496;-21.974;-46.800;2022-12-18T11:14:04;1.98;;;1.52;;
49590;SDS011;35496;-21.974;-46.800;2022-12-18T11:16:47;1.48;;;1.38;;
49590;SDS011;35496;-21.974;-46.800;2022-12-18T11:22:00;2.05;;;1.83;;
49590;SDS011;35496;-21.974;-46.800;2022-12-18T11:24:49;1.95;;;1.83;;
49590;SDS011;35496;-21.974;-46.800;2022-12-18T11:27:21;1.92;;;1.70;;
49590;SDS011;35496;-21.974;-46.800;2022-12-18T11:29:49;1.70;;;1.60;;
49590;SDS011;35496;-21.974;-46.800;2022-12-18T11:32:37;3.97;;;1.80;;
49590;SDS011;35496;-21.974;-46.800;2022-12-18T11:37:53;1.88;;;1.48;;
49590;SDS011;35496;-21.974;-46.800;2022-12-18T11:40:30;1.35;;;1.25;;
49590;SDS011;35496;-21.974;-46.800;2022-12-18T11:45:53;1.52;;;1.08;;
49590;SDS011;35496;-21.974;-46.800;2022-12-18T11:48:30;1.75;;;0.80;;
49590;SDS011;35496;-21.974;-46.800;2022-12-18T11:51:04;1.10;;;1.00;;
49590;SDS011;35496;-21.974;-46.800;2022-12-18T11:53:36;1.55;;;1.13;;
49590;SDS011;35496;-21.974;-46.800;2022-12-18T11:58:52;1.10;;;0.50;;
49590;SDS011;35496;-21.974;-46.800;2022-12-18T12:01:52;0.50;;;0.40;;
49590;SDS011;35496;-21.974;-46.800;2022-12-18T12:18:25;0.77;;;0.77;;
49590;SDS011;35496;-21.974;-46.800;2022-12-18T12:32:54;0.70;;;0.67;;
49590;SDS011;35496;-21.974;-46.800;2022-12-18T12:35:42;0.90;;;0.90;;
49590;SDS011;35496;-21.974;-46.800;2022-12-18T12:38:20;1.23;;;0.88;;
49590;SDS011;35496;-21.974;-46.800;2022-12-18T12:40:59;0.77;;;0.77;;
49590;SDS011;35496;-21.974;-46.800;2022-12-18T12:44:05;1.88;;;1.20;;
49590;SDS011;35496;-21.974;-46.800;2022-12-18T12:46:39;0.70;;;0.70;;
49590;SDS011;35496;-21.974;-46.800;2022-12-18T12:49:10;0.85;;;0.60;;
49590;SDS011;35496;-21.974;-46.800;2022-12-18T12:51:44;0.77;;;0.77;;
49590;SDS011;35496;-21.974;-46.800;2022-12-18T12:54:17;1.98;;;1.27;;
49590;SDS011;35496;-21.974;-46.800;2022-12-18T12:59:51;2.13;;;0.80;;
49590;SDS011;35496;-21.974;-46.800;2022-12-18T13:02:39;1.83;;;0.70;;
49590;SDS011;35496;-21.974;-46.800;2022-12-18T13:15:42;0.65;;;0.65;;
49590;SDS011;35496;-21.974;-46.800;2022-12-18T13:18:18;0.75;;;0.75;;
49590;SDS011;35496;-21.974;-46.800;2022-12-18T13:21:34;1.02;;;0.93;;
49590;SDS011;35496;-21.974;-46.800;2022-12-18T13:23:46;1.13;;;1.00;;
49590;SDS011;35496;-21.974;-46.800;2022-12-18T13:33:45;0.68;;;0.68;;
49590;SDS011;35496;-21.974;-46.800;2022-12-18T13:41:44;0.90;;;0.90;;
49590;SDS011;35496;-21.974;-46.800;2022-12-18T13:46:51;0.60;;;0.57;;
49590;SDS011;35496;-21.974;-46.800;2022-12-18T13:51:50;1.02;;;0.75;;
49590;SDS011;35496;-21.974;-46.800;2022-12-18T13:56:54;1.08;;;0.88;;
49590;SDS011;35496;-21.974;-46.800;2022-12-18T13:59:22;0.52;;;0.40;;
49590;SDS011;35496;-21.974;-46.800;2022-12-18T14:02:26;1.23;;;0.90;;
49590;SDS011;35496;-21.974;-46.800;2022-12-18T14:04:54;3.08;;;0.80;;
49590;SDS011;35496;-21.974;-46.800;2022-12-18T14:07:24;3.47;;;2.10;;
49590;SDS011;35496;-21.974;-46.800;2022-12-18T14:09:56;1.25;;;1.17;;
49590;SDS011;35496;-21.974;-46.800;2022-12-18T14:20:35;1.13;;;1.08;;
49590;SDS011;35496;-21.974;-46.800;2022-12-18T14:23:05;3.65;;;1.17;;
49590;SDS011;35496;-21.974;-46.800;2022-12-18T14:26:01;0.77;;;0.77;;
49590;SDS011;35496;-21.974;-46.800;2022-12-18T14:28:44;1.83;;;1.65;;
49590;SDS011;35496;-21.974;-46.800;2022-12-18T14:31:17;1.05;;;0.95;;
49590;SDS011;35496;-21.974;-46.800;2022-12-18T14:33:45;2.20;;;1.25;;
49590;SDS011;35496;-21.974;-46.800;2022-12-18T14:36:14;1.00;;;1.00;;
49590;SDS011;35496;-21.974;-46.800;2022-12-18T14:38:56;1.17;;;1.17;;
49590;SDS011;35496;-21.974;-46.800;2022-12-18T14:41:24;0.93;;;0.90;;
49590;SDS011;35496;-21.974;-46.800;2022-12-18T14:43:52;1.38;;;1.02;;
49590;SDS011;35496;-21.974;-46.800;2022-12-18T14:46:38;1.17;;;0.82;;
49590;SDS011;35496;-21.974;-46.800;2022-12-18T14:49:19;1.13;;;1.05;;
49590;SDS011;35496;-21.974;-46.800;2022-12-18T14:52:03;1.23;;;0.63;;
49590;SDS011;35496;-21.974;-46.800;2022-12-18T14:54:32;2.53;;;0.82;;
49590;SDS011;35496;-21.974;-46.800;2022-12-18T14:57:02;1.92;;;1.58;;
49590;SDS011;35496;-21.974;-46.800;2022-12-18T14:59:31;7.05;;;2.45;;
49590;SDS011;35496;-21.974;-46.800;2022-12-18T15:05:03;2.55;;;1.75;;
49590;SDS011;35496;-21.974;-46.800;2022-12-18T15:07:45;3.40;;;1.73;;
49590;SDS011;35496;-21.974;-46.800;2022-12-18T15:10:24;4.18;;;1.35;;
49590;SDS011;35496;-21.974;-46.800;2022-12-18T15:20:41;4.55;;;3.88;;
49590;SDS011;35496;-21.974;-46.800;2022-12-18T15:23:20;3.85;;;3.45;;
49590;SDS011;35496;-21.974;-46.800;2022-12-18T15:34:19;0.63;;;0.60;;
49590;SDS011;35496;-21.974;-46.800;2022-12-18T15:36:49;2.13;;;1.98;;
49590;SDS011;35496;-21.974;-46.800;2022-12-18T15:39:17;1.77;;;1.67;;
49590;SDS011;35496;-21.974;-46.800;2022-12-18T15:41:43;1.63;;;1.52;;
49590;SDS011;35496;-21.974;-46.800;2022-12-18T15:44:30;3.47;;;2.40;;
49590;SDS011;35496;-21.974;-46.800;2022-12-18T15:46:57;1.75;;;1.33;;
49590;SDS011;35496;-21.974;-46.800;2022-12-18T15:49:24;0.90;;;0.90;;
49590;SDS011;35496;-21.974;-46.800;2022-12-18T15:51:59;1.45;;;1.30;;
49590;SDS011;35496;-21.974;-46.800;2022-12-18T15:54:27;1.10;;;1.02;;
49590;SDS011;35496;-21.974;-46.800;2022-12-18T15:57:12;1.48;;;1.30;;
49590;SDS011;35496;-21.974;-46.800;2022-12-18T15:59:48;1.48;;;1.38;;
49590;SDS011;35496;-21.974;-46.800;2022-12-18T16:02:17;1.27;;;1.17;;
49590;SDS011;35496;-21.974;-46.800;2022-12-18T16:04:44;1.10;;;1.10;;
49590;SDS011;35496;-21.974;-46.800;2022-12-18T16:07:12;1.95;;;1.85;;
49590;SDS011;35496;-21.974;-46.800;2022-12-18T16:09:38;1.27;;;1.17;;
49590;SDS011;35496;-21.974;-46.800;2022-12-18T16:12:06;2.83;;;1.05;;
49590;SDS011;35496;-21.974;-46.800;2022-12-18T16:14:39;1.77;;;1.67;;
49590;SDS011;35496;-21.974;-46.800;2022-12-18T16:17:08;2.35;;;1.58;;
49590;SDS011;35496;-21.974;-46.800;2022-12-18T16:19:36;1.38;;;0.98;;
49590;SDS011;35496;-21.974;-46.800;2022-12-18T16:22:03;1.17;;;0.88;;
49590;SDS011;35496;-21.974;-46.800;2022-12-18T16:24:31;0.77;;;0.77;;
49590;SDS011;35496;-21.974;-46.800;2022-12-18T16:27:01;0.68;;;0.68;;
49590;SDS011;35496;-21.974;-46.800;2022-12-18T16:29:28;1.02;;;0.95;;
49590;SDS011;35496;-21.974;-46.800;2022-12-18T16:31:59;1.38;;;1.17;;
49590;SDS011;35496;-21.974;-46.800;2022-12-18T16:34:27;3.35;;;1.75;;
49590;SDS011;35496;-21.974;-46.800;2022-12-18T16:36:56;1.40;;;1.27;;
49590;SDS011;35496;-21.974;-46.800;2022-12-18T16:39:25;1.98;;;1.17;;
49590;SDS011;35496;-21.974;-46.800;2022-12-18T16:41:52;2.67;;;1.10;;
49590;SDS011;35496;-21.974;-46.800;2022-12-18T16:44:18;0.68;;;0.68;;
49590;SDS011;35496;-21.974;-46.800;2022-12-18T16:46:46;1.75;;;0.80;;